createdAt,value
2023-02-22T00:01:51.247Z,6.30
2023-02-22T00:04:21.198Z,5.18
2023-02-22T00:06:49.403Z,5.40
2023-02-22T00:09:20.586Z,5.80
2023-02-22T00:11:48.807Z,5.38
2023-02-22T00:14:15.894Z,5.65
2023-02-22T00:16:42.486Z,4.88
2023-02-22T00:19:10.586Z,5.38
2023-02-22T00:21:37.428Z,5.95
2023-02-22T00:24:23.104Z,4.53
2023-02-22T00:26:55.667Z,5.45
2023-02-22T00:29:23.426Z,5.18
2023-02-22T00:31:50.234Z,4.93
2023-02-22T00:34:16.805Z,6.32
2023-02-22T00:36:48.305Z,5.03
2023-02-22T00:39:14.945Z,7.05
2023-02-22T00:41:41.514Z,5.47
2023-02-22T00:44:08.082Z,5.60
2023-02-22T00:46:37.762Z,5.93
2023-02-22T00:49:07.144Z,5.82
2023-02-22T00:51:35.633Z,6.65
2023-02-22T00:54:02.209Z,5.30
2023-02-22T00:56:28.754Z,6.28
2023-02-22T00:58:55.329Z,6.85
2023-02-22T01:01:22.345Z,6.40
2023-02-22T01:03:48.943Z,5.05
2023-02-22T01:06:15.666Z,5.68
2023-02-22T01:08:45.242Z,5.28
2023-02-22T01:11:12.692Z,5.80
2023-02-22T01:13:39.287Z,5.70
2023-02-22T01:16:08.706Z,5.10
2023-02-22T01:18:38.116Z,6.10
2023-02-22T01:21:06.066Z,7.78
2023-02-22T01:23:32.553Z,5.43
2023-02-22T01:25:59.087Z,5.57
2023-02-22T01:28:25.647Z,5.50
2023-02-22T01:30:52.307Z,5.93
2023-02-22T01:33:18.913Z,6.65
2023-02-22T01:35:46.367Z,5.40
2023-02-22T01:38:14.199Z,5.43
2023-02-22T01:40:43.562Z,5.68
2023-02-22T01:43:30.734Z,5.57
2023-02-22T01:45:57.403Z,5.40
2023-02-22T01:48:47.785Z,5.95
2023-02-22T01:51:20.371Z,6.47
2023-02-22T01:53:55.409Z,5.88
2023-02-22T01:56:24.918Z,6.88
2023-02-22T01:58:59.370Z,5.55
2023-02-22T02:01:29.565Z,7.25
2023-02-22T02:04:01.167Z,7.43
2023-02-22T02:06:33.783Z,7.13
2023-02-22T02:09:30.234Z,7.38
2023-02-22T02:12:05.067Z,6.55
2023-02-22T02:14:32.350Z,6.80
2023-02-22T02:17:03.594Z,6.28
2023-02-22T02:20:00.684Z,6.57
2023-02-22T02:22:45.955Z,5.70
2023-02-22T02:25:30.970Z,7.63
2023-02-22T02:28:25.988Z,6.93
2023-02-22T02:31:31.466Z,8.05
2023-02-22T02:34:24.252Z,7.07
2023-02-22T02:37:35.556Z,7.10
2023-02-22T02:40:24.067Z,6.93
2023-02-22T02:42:59.144Z,6.45
2023-02-22T02:45:32.946Z,6.63
2023-02-22T02:48:03.632Z,6.97
2023-02-22T02:50:37.752Z,7.88
2023-02-22T02:53:11.056Z,6.80
2023-02-22T02:55:38.286Z,7.70
2023-02-22T02:58:07.635Z,7.72
2023-02-22T03:00:41.679Z,7.13
2023-02-22T03:03:25.371Z,7.32
2023-02-22T03:06:12.300Z,7.43
2023-02-22T03:08:52.790Z,7.90
2023-02-22T03:11:24.147Z,7.30
2023-02-22T03:14:14.586Z,7.15
2023-02-22T03:16:55.809Z,7.20
2023-02-22T03:19:50.532Z,7.32
2023-02-22T03:22:26.385Z,6.82
2023-02-22T03:25:14.465Z,7.65
2023-02-22T03:27:46.482Z,8.27
2023-02-22T03:30:39.579Z,7.47
2023-02-22T03:33:15.641Z,7.88
2023-02-22T03:35:50.937Z,7.18
2023-02-22T03:38:21.005Z,7.00
2023-02-22T03:40:52.239Z,7.93
2023-02-22T03:43:25.000Z,7.32
2023-02-22T03:45:51.946Z,7.22
2023-02-22T03:48:38.544Z,7.40
2023-02-22T03:51:06.280Z,6.32
2023-02-22T03:53:37.087Z,6.85
2023-02-22T03:56:08.572Z,7.80
2023-02-22T03:58:37.752Z,7.00
2023-02-22T04:01:04.464Z,6.28
2023-02-22T04:03:30.979Z,7.18
2023-02-22T04:05:58.007Z,6.63
2023-02-22T04:08:24.502Z,6.72
2023-02-22T04:10:51.390Z,7.28
2023-02-22T04:13:17.909Z,6.97
2023-02-22T04:15:47.571Z,6.50
2023-02-22T04:18:18.458Z,6.95
2023-02-22T04:20:48.511Z,6.53
2023-02-22T04:23:17.050Z,6.45
2023-02-22T04:25:47.572Z,6.40
2023-02-22T04:28:18.159Z,7.00
2023-02-22T04:30:48.687Z,7.22
2023-02-22T04:33:19.427Z,7.20
2023-02-22T04:35:49.534Z,6.07
2023-02-22T04:38:17.821Z,6.70
2023-02-22T04:40:47.470Z,6.55
2023-02-22T04:43:13.988Z,7.05
2023-02-22T04:45:40.528Z,6.68
2023-02-22T04:48:07.057Z,6.20
2023-02-22T04:50:33.560Z,7.28
2023-02-22T04:53:00.030Z,6.72
2023-02-22T04:55:28.126Z,7.35
2023-02-22T04:57:55.964Z,6.03
2023-02-22T05:00:22.681Z,7.43
2023-02-22T05:02:50.323Z,6.35
2023-02-22T05:05:21.447Z,6.25
2023-02-22T05:07:51.012Z,6.13
2023-02-22T05:10:21.003Z,6.47
2023-02-22T05:12:51.838Z,6.18
2023-02-22T05:15:22.134Z,6.72
2023-02-22T05:17:49.719Z,6.80
2023-02-22T05:20:29.895Z,6.22
2023-02-22T05:22:58.304Z,6.80
2023-02-22T05:25:25.691Z,7.10
2023-02-22T05:27:54.285Z,6.53
2023-02-22T05:30:25.366Z,5.70
2023-02-22T05:32:52.512Z,5.75
2023-02-22T05:35:23.258Z,7.47
2023-02-22T05:37:50.855Z,6.97
2023-02-22T05:40:19.454Z,7.18
2023-02-22T05:42:49.102Z,6.88
2023-02-22T05:45:20.982Z,6.88
2023-02-22T05:47:49.565Z,7.32
2023-02-22T05:50:19.840Z,6.95
2023-02-22T05:52:49.535Z,9.13
2023-02-22T05:55:21.733Z,13.00
2023-02-22T05:57:52.672Z,16.63
2023-02-22T06:00:27.888Z,13.88
2023-02-22T06:03:03.096Z,7.18
2023-02-22T06:05:29.973Z,6.00
2023-02-22T06:07:57.773Z,5.72
2023-02-22T06:10:25.129Z,5.80
2023-02-22T06:12:52.201Z,5.03
2023-02-22T06:15:23.251Z,6.10
2023-02-22T06:17:49.861Z,6.55
2023-02-22T06:20:19.993Z,7.80
2023-02-22T06:22:54.704Z,6.80
2023-02-22T06:25:26.579Z,6.30
2023-02-22T06:27:53.367Z,6.15
2023-02-22T06:30:24.962Z,5.47
2023-02-22T06:32:51.667Z,6.72
2023-02-22T06:35:21.975Z,6.28
2023-02-22T06:37:51.163Z,6.20
2023-02-22T06:40:21.399Z,5.95
2023-02-22T06:42:50.941Z,5.60
2023-02-22T06:45:21.544Z,6.38
2023-02-22T06:47:51.224Z,5.97
2023-02-22T06:50:26.621Z,5.07
2023-02-22T06:52:53.162Z,5.22
2023-02-22T06:55:21.780Z,5.28
2023-02-22T06:57:51.753Z,6.22
2023-02-22T07:00:25.084Z,6.05
2023-02-22T07:02:52.367Z,5.70
2023-02-22T07:05:23.994Z,6.22
2023-02-22T07:07:52.798Z,6.15
2023-02-22T07:10:28.612Z,6.13
2023-02-22T07:12:55.826Z,5.57
2023-02-22T07:15:24.558Z,6.45
2023-02-22T07:17:52.492Z,6.05
2023-02-22T07:20:24.761Z,4.65
2023-02-22T07:22:52.375Z,5.15
2023-02-22T07:25:23.446Z,5.07
2023-02-22T07:27:53.670Z,5.97
2023-02-22T07:30:28.217Z,5.43
2023-02-22T07:32:55.793Z,5.70
2023-02-22T07:35:28.658Z,6.00
2023-02-22T07:37:56.338Z,5.53
2023-02-22T07:40:23.743Z,6.07
2023-02-22T07:43:04.320Z,6.50
2023-02-22T07:45:33.910Z,7.18
2023-02-22T07:48:01.935Z,5.85
2023-02-22T07:50:32.828Z,6.28
2023-02-22T07:53:02.349Z,5.90
2023-02-22T07:55:31.008Z,6.03
2023-02-22T07:58:04.619Z,5.88
2023-02-22T08:00:34.429Z,5.85
2023-02-22T08:03:02.929Z,5.72
2023-02-22T08:05:31.363Z,6.65
2023-02-22T08:07:58.211Z,6.72
2023-02-22T08:10:26.436Z,6.60
2023-02-22T08:12:54.343Z,7.00
2023-02-22T08:15:24.247Z,6.05
2023-02-22T08:17:53.684Z,6.32
2023-02-22T08:20:23.301Z,4.90
2023-02-22T08:22:51.579Z,6.15
2023-02-22T08:25:20.852Z,5.15
2023-02-22T08:27:50.763Z,5.15
2023-02-22T08:30:22.429Z,6.38
2023-02-22T08:32:51.287Z,5.90
2023-02-22T08:35:20.594Z,6.00
2023-02-22T08:37:53.074Z,7.07
2023-02-22T08:40:24.489Z,6.18
2023-02-22T08:42:51.549Z,6.35
2023-02-22T08:45:21.118Z,5.97
2023-02-22T08:47:49.591Z,7.10
2023-02-22T08:50:24.096Z,6.65
2023-02-22T08:52:58.651Z,6.90
2023-02-22T08:55:27.747Z,6.45
2023-02-22T08:57:54.300Z,7.10
2023-02-22T09:00:24.776Z,6.47
2023-02-22T09:02:52.432Z,6.95
2023-02-22T09:05:21.012Z,5.38
2023-02-22T09:07:50.059Z,7.00
2023-02-22T09:10:20.420Z,6.07
2023-02-22T09:12:47.031Z,6.60
2023-02-22T09:15:13.581Z,6.30
2023-02-22T09:17:40.074Z,6.75
2023-02-22T09:20:08.151Z,6.60
2023-02-22T09:22:34.714Z,6.57
2023-02-22T09:25:11.353Z,6.88
2023-02-22T09:27:43.665Z,6.20
2023-02-22T09:30:36.794Z,6.40
2023-02-22T09:33:12.402Z,6.80
2023-02-22T09:35:42.564Z,5.72
2023-02-22T09:38:11.127Z,5.60
2023-02-22T09:40:45.092Z,6.35
2023-02-22T09:43:14.803Z,6.45
2023-02-22T09:45:56.586Z,5.75
2023-02-22T09:48:25.372Z,6.60
2023-02-22T09:50:58.482Z,6.00
2023-02-22T09:53:45.059Z,6.78
2023-02-22T09:56:14.640Z,6.18
2023-02-22T09:58:45.811Z,6.68
2023-02-22T10:01:28.096Z,6.30
2023-02-22T10:04:24.988Z,6.20
2023-02-22T10:07:09.968Z,6.65
2023-02-22T10:09:42.735Z,6.30
2023-02-22T10:12:12.722Z,6.53
2023-02-22T10:15:02.752Z,6.03
2023-02-22T10:17:54.061Z,6.30
2023-02-22T10:20:50.692Z,7.30
2023-02-22T10:23:28.582Z,7.10
2023-02-22T10:26:26.883Z,7.43
2023-02-22T10:29:11.949Z,7.05
2023-02-22T10:31:45.780Z,6.88
2023-02-22T10:34:25.705Z,6.25
2023-02-22T10:37:03.162Z,7.38
2023-02-22T10:39:36.533Z,6.68
2023-02-22T10:42:08.105Z,5.97
2023-02-22T10:44:39.754Z,7.75
2023-02-22T10:47:10.081Z,6.15
2023-02-22T10:49:41.986Z,6.20
2023-02-22T10:52:24.560Z,7.13
2023-02-22T10:54:52.077Z,5.95
2023-02-22T10:57:25.645Z,8.40
2023-02-22T10:59:52.505Z,10.70
2023-02-22T11:02:27.828Z,12.55
2023-02-22T11:04:57.776Z,10.50
2023-02-22T11:07:24.644Z,7.63
2023-02-22T11:09:57.820Z,8.75
2023-02-22T11:12:39.912Z,7.05
2023-02-22T11:15:21.083Z,7.32
2023-02-22T11:18:01.467Z,6.57
2023-02-22T11:20:35.081Z,7.18
2023-02-22T11:23:05.112Z,7.43
2023-02-22T11:25:42.293Z,9.07
2023-02-22T11:28:31.075Z,7.25
2023-02-22T11:31:22.332Z,7.97
2023-02-22T11:33:59.517Z,10.18
2023-02-22T11:36:30.799Z,6.80
2023-02-22T11:39:00.769Z,7.00
2023-02-22T11:41:29.900Z,7.32
2023-02-22T11:44:21.526Z,7.07
2023-02-22T11:46:50.678Z,6.22
2023-02-22T11:49:21.710Z,5.93
2023-02-22T11:52:20.626Z,5.68
2023-02-22T11:55:01.845Z,5.97
2023-02-22T11:57:46.552Z,6.25
2023-02-22T12:00:29.035Z,5.25
2023-02-22T12:03:20.850Z,5.43
2023-02-22T12:06:02.379Z,6.10
2023-02-22T12:08:54.132Z,4.97
2023-02-22T12:11:33.120Z,5.53
2023-02-22T12:14:14.824Z,5.10
2023-02-22T12:16:59.633Z,6.03
2023-02-22T12:19:38.095Z,6.45
2023-02-22T12:22:13.154Z,6.07
2023-02-22T12:24:57.945Z,5.68
2023-02-22T12:27:50.253Z,4.75
2023-02-22T12:30:38.658Z,5.28
2023-02-22T12:33:13.793Z,4.78
2023-02-22T12:35:50.820Z,4.70
2023-02-22T12:38:27.700Z,4.72
2023-02-22T12:40:54.480Z,5.25
2023-02-22T12:43:29.273Z,5.07
2023-02-22T12:46:14.295Z,5.22
2023-02-22T12:48:51.682Z,5.30
2023-02-22T12:51:22.204Z,5.47
2023-02-22T12:54:25.788Z,5.05
2023-02-22T12:57:10.087Z,5.03
2023-02-22T12:59:39.003Z,4.97
2023-02-22T13:02:21.736Z,5.13
2023-02-22T13:04:50.730Z,5.38
2023-02-22T13:07:23.047Z,5.03
2023-02-22T13:09:58.900Z,5.13
2023-02-22T13:12:57.588Z,5.72
2023-02-22T13:15:46.250Z,5.50
2023-02-22T13:18:27.907Z,6.90
2023-02-22T13:21:17.888Z,4.70
2023-02-22T13:23:55.978Z,5.82
2023-02-22T13:26:31.489Z,6.10
2023-02-22T13:29:13.854Z,6.63
2023-02-22T13:32:10.753Z,6.10
2023-02-22T13:34:37.179Z,6.20
2023-02-22T13:37:12.795Z,6.88
2023-02-22T13:40:03.248Z,7.03
2023-02-22T13:42:29.691Z,6.28
2023-02-22T13:45:27.328Z,7.30
2023-02-22T13:48:04.057Z,7.70
2023-02-22T13:51:00.750Z,7.78
2023-02-22T13:53:34.987Z,8.13
2023-02-22T13:56:02.232Z,7.95
2023-02-22T13:58:28.913Z,7.00
2023-02-22T14:00:58.058Z,7.28
2023-02-22T14:03:41.128Z,7.25
2023-02-22T14:06:11.465Z,5.90
2023-02-22T14:08:41.300Z,6.93
2023-02-22T14:11:14.418Z,7.57
2023-02-22T14:13:57.987Z,7.25
2023-02-22T14:16:27.308Z,6.63
2023-02-22T14:19:13.489Z,6.88
2023-02-22T14:21:57.552Z,6.45
2023-02-22T14:24:27.486Z,6.75
2023-02-22T14:27:04.843Z,7.03
2023-02-22T14:29:31.700Z,5.43
2023-02-22T14:32:03.044Z,6.90
2023-02-22T14:35:25.436Z,6.25
2023-02-22T14:37:57.084Z,5.72
2023-02-22T14:40:30.353Z,5.20
2023-02-22T14:43:19.909Z,5.97
2023-02-22T14:46:01.347Z,5.47
2023-02-22T14:48:42.776Z,8.05
2023-02-22T14:51:21.865Z,32.13
2023-02-22T14:54:06.430Z,27.88
2023-02-22T14:56:41.435Z,29.35
2023-02-22T14:59:21.221Z,61.25
2023-02-22T15:02:01.679Z,28.02
2023-02-22T15:04:34.933Z,8.27
2023-02-22T15:07:09.569Z,6.43
2023-02-22T15:09:37.607Z,7.70
2023-02-22T15:12:04.318Z,7.30
2023-02-22T15:14:39.179Z,7.47
2023-02-22T15:17:17.220Z,6.80
2023-02-22T15:19:43.979Z,6.63
2023-02-22T15:22:19.566Z,6.70
2023-02-22T15:24:56.705Z,7.85
2023-02-22T15:27:25.984Z,7.07
2023-02-22T15:29:59.702Z,7.82
2023-02-22T15:32:30.645Z,7.53
2023-02-22T15:35:28.421Z,7.07
2023-02-22T15:38:20.124Z,7.72
2023-02-22T15:40:50.624Z,7.20
2023-02-22T15:43:32.748Z,6.57
2023-02-22T15:46:00.899Z,5.85
2023-02-22T15:48:31.160Z,6.82
2023-02-22T15:51:04.340Z,7.03
2023-02-22T15:53:42.684Z,6.05
2023-02-22T15:56:16.354Z,6.18
2023-02-22T15:58:45.691Z,5.53
2023-02-22T16:01:17.293Z,6.82
2023-02-22T16:03:51.507Z,6.60
2023-02-22T16:06:36.039Z,5.30
2023-02-22T16:09:32.474Z,5.63
2023-02-22T16:12:24.189Z,6.20
2023-02-22T16:14:52.402Z,6.53
2023-02-22T16:17:27.927Z,4.90
2023-02-22T16:19:54.751Z,5.97
2023-02-22T16:22:36.697Z,5.78
2023-02-22T16:25:21.516Z,6.93
2023-02-22T16:27:59.378Z,7.25
2023-02-22T16:30:29.506Z,6.85
2023-02-22T16:32:58.425Z,7.22
2023-02-22T16:35:28.789Z,7.80
2023-02-22T16:38:02.222Z,6.65
2023-02-22T16:40:39.005Z,7.78
2023-02-22T16:43:14.222Z,6.35
2023-02-22T16:45:42.500Z,7.22
2023-02-22T16:48:18.653Z,7.47
2023-02-22T16:50:46.623Z,7.30
2023-02-22T16:53:13.646Z,6.93
2023-02-22T16:55:44.751Z,8.02
2023-02-22T16:58:13.777Z,6.78
2023-02-22T17:00:42.304Z,7.45
2023-02-22T17:03:15.018Z,6.47
2023-02-22T17:05:41.894Z,6.43
2023-02-22T17:08:08.506Z,6.25
2023-02-22T17:10:35.086Z,7.68
2023-02-22T17:13:16.134Z,7.28
2023-02-22T17:15:46.847Z,6.30
2023-02-22T17:18:16.319Z,6.57
2023-02-22T17:20:45.020Z,6.50
2023-02-22T17:23:12.390Z,7.10
2023-02-22T17:25:50.643Z,7.63
2023-02-22T17:28:17.254Z,8.23
2023-02-22T17:30:45.319Z,7.07
2023-02-22T17:33:16.331Z,7.50
2023-02-22T17:35:43.949Z,9.18
2023-02-22T17:38:10.517Z,7.63
2023-02-22T17:40:38.936Z,7.13
2023-02-22T17:43:08.773Z,8.45
2023-02-22T17:45:38.095Z,7.60
2023-02-22T17:48:05.533Z,8.85
2023-02-22T17:50:32.109Z,8.52
2023-02-22T17:53:03.234Z,7.78
2023-02-22T17:55:30.144Z,8.35
2023-02-22T17:57:59.341Z,8.05
2023-02-22T18:00:34.191Z,7.28
2023-02-22T18:03:10.854Z,8.05
2023-02-22T18:05:47.052Z,7.85
2023-02-22T18:08:15.826Z,8.00
2023-02-22T18:10:43.699Z,7.40
2023-02-22T18:13:14.134Z,7.03
2023-02-22T18:15:40.707Z,7.45
2023-02-22T18:18:07.461Z,9.68
2023-02-22T18:20:39.879Z,9.07
2023-02-22T18:23:08.433Z,7.88
2023-02-22T18:25:36.543Z,8.02
2023-02-22T18:28:07.842Z,8.13
2023-02-22T18:30:36.749Z,7.53
2023-02-22T18:33:04.241Z,8.27
2023-02-22T18:35:31.584Z,9.63
2023-02-22T18:38:01.390Z,7.82
2023-02-22T18:40:30.774Z,8.07
2023-02-22T18:43:00.550Z,8.93
2023-02-22T18:45:30.728Z,7.25
2023-02-22T18:48:00.889Z,8.73
2023-02-22T18:50:30.546Z,9.77
2023-02-22T18:52:59.921Z,9.50
2023-02-22T18:55:27.686Z,9.18
2023-02-22T18:57:57.730Z,9.55
2023-02-22T19:00:29.961Z,8.45
2023-02-22T19:02:58.635Z,8.23
2023-02-22T19:05:25.143Z,8.45
2023-02-22T19:07:51.686Z,8.40
2023-02-22T19:10:18.281Z,9.80
2023-02-22T19:12:44.838Z,8.63
2023-02-22T19:15:12.148Z,8.70
2023-02-22T19:17:40.617Z,8.02
2023-02-22T19:20:10.770Z,8.68
2023-02-22T19:25:05.707Z,6.82
2023-02-22T19:27:52.528Z,6.50
2023-02-22T19:30:19.098Z,7.55
2023-02-22T19:32:47.442Z,9.35
2023-02-22T19:35:28.616Z,6.90
2023-02-22T19:37:56.107Z,7.82
2023-02-22T19:40:23.290Z,6.90
2023-02-22T19:42:51.592Z,7.68
2023-02-22T19:45:22.360Z,7.35
2023-02-22T19:47:54.052Z,8.27
2023-02-22T19:50:21.679Z,7.22
2023-02-22T19:53:04.667Z,5.97
2023-02-22T19:55:32.350Z,7.30
2023-02-22T19:58:03.329Z,6.72
2023-02-22T20:00:35.780Z,6.63
2023-02-22T20:03:06.433Z,6.88
2023-02-22T20:05:37.313Z,6.82
2023-02-22T20:08:04.182Z,7.55
2023-02-22T20:10:34.999Z,7.78
2023-02-22T20:13:02.176Z,6.85
2023-02-22T20:15:33.260Z,7.38
2023-02-22T20:18:02.724Z,6.72
2023-02-22T20:20:33.495Z,7.22
2023-02-22T20:23:01.511Z,7.53
2023-02-22T20:25:28.044Z,7.88
2023-02-22T20:27:56.525Z,7.88
2023-02-22T20:30:25.070Z,7.35
2023-02-22T20:32:51.779Z,8.23
2023-02-22T20:35:18.435Z,7.18
2023-02-22T20:37:44.973Z,7.18
2023-02-22T20:40:11.592Z,7.03
2023-02-22T20:42:40.526Z,6.65
2023-02-22T20:45:08.851Z,7.35
2023-02-22T20:47:36.424Z,7.03
2023-02-22T20:50:03.362Z,6.85
2023-02-22T20:52:33.366Z,7.18
2023-02-22T20:55:04.246Z,6.70
2023-02-22T20:57:33.836Z,5.75
2023-02-22T21:00:04.840Z,5.13
2023-02-22T21:02:36.829Z,5.10
2023-02-22T21:05:03.469Z,5.22
2023-02-22T21:07:33.705Z,4.93
2023-02-22T21:10:06.063Z,4.90
2023-02-22T21:12:34.887Z,5.32
2023-02-22T21:15:01.948Z,4.70
2023-02-22T21:17:31.534Z,4.00
2023-02-22T21:20:01.179Z,3.92
2023-02-22T21:22:27.690Z,4.03
2023-02-22T21:24:54.227Z,3.15
2023-02-22T21:27:20.735Z,3.58
2023-02-22T21:29:47.305Z,3.60
2023-02-22T21:32:14.120Z,3.60
2023-02-22T21:34:40.938Z,3.75
2023-02-22T21:37:08.365Z,4.63
2023-02-22T21:39:35.467Z,3.97
2023-02-22T21:42:07.169Z,3.92
2023-02-22T21:44:33.726Z,3.35
2023-02-22T21:47:02.090Z,3.58
2023-02-22T21:49:29.048Z,3.72
2023-02-22T21:51:57.591Z,4.15
2023-02-22T21:54:24.230Z,3.10
2023-02-22T21:56:50.834Z,3.97
2023-02-22T21:59:20.266Z,3.35
2023-02-22T22:01:55.457Z,4.07
2023-02-22T22:04:29.839Z,2.72
2023-02-22T22:06:59.351Z,3.17
2023-02-22T22:09:29.049Z,3.30
2023-02-22T22:11:58.392Z,2.70
2023-02-22T22:14:26.121Z,3.45
2023-02-22T22:17:00.232Z,2.92
2023-02-22T22:19:29.319Z,2.53
2023-02-22T22:21:56.838Z,2.42
2023-02-22T22:24:24.183Z,2.08
2023-02-22T22:26:54.811Z,3.38
2023-02-22T22:29:28.548Z,2.80
2023-02-22T22:31:55.527Z,2.80
2023-02-22T22:34:25.190Z,2.17
2023-02-22T22:36:51.677Z,1.83
2023-02-22T22:39:20.936Z,1.67
2023-02-22T22:41:48.345Z,1.80
2023-02-22T22:44:16.139Z,1.60
2023-02-22T22:46:43.581Z,1.48
2023-02-22T22:49:13.289Z,1.55
2023-02-22T22:51:41.125Z,1.67
2023-02-22T22:54:12.090Z,1.65
2023-02-22T22:56:38.725Z,2.08
2023-02-22T22:59:09.709Z,1.58
2023-02-22T23:01:40.612Z,2.10
2023-02-22T23:04:11.739Z,2.00
2023-02-22T23:06:41.071Z,2.20
2023-02-22T23:09:11.620Z,2.83
2023-02-22T23:11:44.593Z,2.38
2023-02-22T23:14:14.077Z,2.10
2023-02-22T23:16:42.407Z,1.85
2023-02-22T23:19:09.314Z,2.72
2023-02-22T23:21:39.175Z,1.92
2023-02-22T23:24:09.145Z,1.83
2023-02-22T23:26:38.501Z,1.65
2023-02-22T23:29:07.740Z,2.08
2023-02-22T23:31:39.597Z,1.10
2023-02-22T23:34:11.216Z,1.40
2023-02-22T23:36:44.602Z,1.48
2023-02-22T23:39:12.297Z,1.00
2023-02-22T23:41:38.788Z,0.98
2023-02-22T23:44:08.445Z,1.05
2023-02-22T23:46:39.279Z,1.50
2023-02-22T23:49:09.037Z,1.10
2023-02-22T23:51:39.681Z,1.35
2023-02-22T23:54:12.560Z,1.10
2023-02-22T23:56:47.291Z,1.30
2023-02-22T23:59:14.448Z,2.22
